Strona główna
METAR-TAF:

METAR-TAF

Lotnisko :

Port lotniczy Burgos

Burgos, Hiszpania

Szerokość geograficzna: 42-22N, Długość geograficzna: 003-38W, wysokość: 894 m

Aktualna obserwacja pogody

Raport powstał 19 minut temu, godzina 05:30 UTC
Wiatr 5 kt od północno-północny wschód
Temperatura 11°C
Wilgotność 94%
Ciśnienie 1026 hPa
Widzialność 10 km lub więcej
Brak chmur poniżej 1500 m i brak chmur cumulonimbus

METAR: LEBG 280530Z AUTO 02005KT CAVOK 11/10 Q1026

czas: 07:49 (05:49 UTC)

Prognoza

Raport powstał 49 minut temu, godzina 05:00 UTC
Prognoza ważna od 28 godzina 06 UTC do 28 godzina 15 UTC
Wiatr 6 kt od wschodnio-północny wschód
Widzialność 10 km lub więcej
Brak chmur poniżej 1500 m i brak chmur cumulonimbus
Prawdopodobieństwo 30% :
Przejściowo
od 28 godzina 14 UTC do 28 godzina 15 UTC
Mało chmury na wysokości 3500 ft, Cumulusy wypiętrznone.

TAF: LEBG 280500Z 2806/2815 06006KT CAVOK PROB30 TEMPO 2814/2815 FEW035TCU

Obserwacja i prognoza pogody dla ponad 4000 lotnisk (raport METAR i TAF).

Dostępne stacje oznaczono żółtymi i czerwonymi punktami na mapie.

Najedź kursorem aby zobaczyć nazwę stacji.

Kliknij aby zobaczyć obserwacje i prognozy pogody.

Aby zmienić mapę: kliknij na zielony przycisk z czarnym krzyżykiem, aby powiększyć; na zielony przycisk z myślnikiem, aby pomniejszyć; na zielone strzałki, aby przejść do map sąsiednich.


METAR-TAF: